LFRK 211100Z AUTO 26002KT 9999 OVC036 05/02 Q1040 NOSIG

ElémentsDécodage
LFRK Station météo située sur l'aérodrome de CAEN Carpiquet
211100Z émis le 21 du mois à 11h00 UTC
AUTO Bulletin édité par un automate
26002KT vent du 260°, 02 noeuds
9999 visibilité horizontale supérieure à 10 Km
OVC036 couverture nuageuse totale (8/8) à 3600 pieds
05/02 température 05°C, point de rosée 02°C
 soit une humidité relative de 81%
Q1040 la pression au niveau de la mer (QNH) est de 1040 hPa
NOSIG Pas de changement significatif prévu au cours des deux heures suivant l'heure de l'observation